Time;durP1;ratioP1;P1;durP2;ratioP2;P2;SDS_P1;SDS_P2;PMS_P1;PMS_P2;Temp;Humidity;BMP_temperature;BMP_pressure;BME280_temperature;BME280_humidity;BME280_pressure;Samples;Min_cycle;Max_cycle;Signal;HPM_P1;HPM_P2
2024/01/06 00:00:13;;;;;;;;;;;6.80;99.90;;;;;;5016425;28;19933;-89
2024/01/06 00:02:38;;;;;;;;;;;6.80;99.90;;;;;;5017858;28;19936;-89
2024/01/06 00:05:05;;;;;;;;;;;6.80;99.90;;;;;;5016062;28;19933;-90
2024/01/06 00:07:30;;;;;;;;;;;6.70;99.90;;;;;;5018585;28;20376;-89
2024/01/06 00:09:56;;;;;;;;;;;6.70;99.90;;;;;;5019028;28;19932;-88
2024/01/06 00:12:21;;;;;;;;;;;6.60;99.90;;;;;;5019369;28;19929;-89
2024/01/06 00:14:48;;;;;;;;;;;6.60;99.90;;;;;;5021921;28;19923;-89
2024/01/06 00:17:14;;;;;;;;;;;6.60;99.90;;;;;;5018331;28;20296;-87
2024/01/06 00:19:39;;;;;;;;;;;6.60;99.90;;;;;;5020231;28;19926;-88
2024/01/06 00:22:05;;;;;;;;;;;6.70;99.90;;;;;;5019300;28;20359;-89
2024/01/06 00:24:30;;;;;;;;;;;6.80;99.90;;;;;;5020642;28;20017;-88
2024/01/06 00:26:56;;;;;;;;;;;6.80;99.90;;;;;;5016599;28;19991;-88
2024/01/06 00:29:21;;;;;;;;;;;6.80;99.90;;;;;;5020874;28;20362;-88
2024/01/06 00:31:47;;;;;;;;;;;6.90;99.90;;;;;;5026207;28;20342;-88
2024/01/06 00:34:13;;;;;;;;;;;6.90;99.90;;;;;;5024601;28;20079;-89
2024/01/06 00:36:38;;;;;;;;;;;6.90;99.90;;;;;;5026693;28;19956;-89
2024/01/06 00:39:04;;;;;;;;;;;6.90;99.90;;;;;;5022171;28;19946;-88
2024/01/06 00:41:30;;;;;;;;;;;6.90;99.90;;;;;;5015442;28;19976;-88
2024/01/06 00:43:55;;;;;;;;;;;6.90;99.90;;;;;;5021294;28;19988;-89
2024/01/06 00:46:21;;;;;;;;;;;6.90;99.90;;;;;;5028867;28;19931;-89
2024/01/06 00:48:46;;;;;;;;;;;6.90;99.90;;;;;;5019577;28;19928;-90
2024/01/06 00:51:13;;;;;;;;;;;6.90;99.90;;;;;;5010449;28;19961;-87
2024/01/06 00:53:38;;;;;;;;;;;6.90;99.90;;;;;;5040523;28;20009;-88
2024/01/06 00:56:04;;;;;;;;;;;6.90;99.90;;;;;;5033936;28;20015;-88
2024/01/06 00:58:29;;;;;;;;;;;6.80;99.90;;;;;;5023688;28;19987;-89
2024/01/06 01:00:55;;;;;;;;;;;6.80;99.90;;;;;;5026881;28;19949;-88
2024/01/06 01:03:21;;;;;;;;;;;6.80;99.90;;;;;;5024790;28;19941;-89
2024/01/06 01:05:46;;;;;;;;;;;6.80;99.90;;;;;;5024239;28;20344;-89
2024/01/06 01:08:12;;;;;;;;;;;6.80;99.90;;;;;;5031490;28;19934;-88
2024/01/06 01:10:38;;;;;;;;;;;6.80;99.90;;;;;;5044623;28;19918;-89
2024/01/06 01:13:03;;;;;;;;;;;6.80;99.90;;;;;;5046841;28;19927;-88
2024/01/06 01:15:29;;;;;;;;;;;6.90;99.90;;;;;;5039656;28;20005;-89
2024/01/06 01:17:54;;;;;;;;;;;6.90;99.90;;;;;;5043515;28;19946;-88
2024/01/06 01:20:20;;;;;;;;;;;6.90;99.90;;;;;;5035565;28;19921;-88
2024/01/06 01:22:46;;;;;;;;;;;6.90;99.90;;;;;;5029325;28;19949;-88
2024/01/06 01:25:12;;;;;;;;;;;6.90;99.90;;;;;;5022264;28;19996;-88
2024/01/06 01:27:38;;;;;;;;;;;7.00;99.90;;;;;;5022075;28;20004;-89
2024/01/06 01:30:05;;;;;;;;;;;7.00;99.90;;;;;;5013219;28;20079;-88
2024/01/06 01:32:30;;;;;;;;;;;7.00;99.90;;;;;;5017335;28;19981;-89
2024/01/06 01:34:56;;;;;;;;;;;6.90;99.90;;;;;;5013761;28;19930;-88
2024/01/06 01:37:21;;;;;;;;;;;6.90;99.90;;;;;;5016047;28;19957;-89
2024/01/06 01:39:47;;;;;;;;;;;6.80;99.90;;;;;;5017629;28;20223;-89
2024/01/06 01:42:13;;;;;;;;;;;6.80;99.90;;;;;;5014802;28;19968;-88
2024/01/06 01:44:38;;;;;;;;;;;6.80;99.90;;;;;;5016746;28;20331;-88
2024/01/06 01:47:04;;;;;;;;;;;6.90;99.90;;;;;;5021081;28;19940;-89
2024/01/06 01:49:30;;;;;;;;;;;6.90;99.90;;;;;;5015594;28;19939;-89
2024/01/06 01:51:56;;;;;;;;;;;6.90;99.90;;;;;;5016299;28;19933;-88
2024/01/06 01:54:21;;;;;;;;;;;6.90;99.90;;;;;;5018558;28;19935;-88
2024/01/06 01:56:47;;;;;;;;;;;6.90;99.90;;;;;;5018224;28;19937;-88
2024/01/06 01:59:13;;;;;;;;;;;6.90;99.90;;;;;;5017548;28;19917;-88
2024/01/06 02:01:40;;;;;;;;;;;6.90;99.90;;;;;;5018612;28;19966;-88
2024/01/06 02:04:06;;;;;;;;;;;6.90;99.90;;;;;;5017712;28;19955;-88
2024/01/06 02:06:31;;;;;;;;;;;7.00;99.90;;;;;;5014375;28;19949;-89
2024/01/06 02:08:57;;;;;;;;;;;7.00;99.90;;;;;;5014752;28;20385;-88
2024/01/06 02:11:23;;;;;;;;;;;7.00;99.90;;;;;;5016243;28;20324;-89
2024/01/06 02:13:48;;;;;;;;;;;7.00;99.90;;;;;;5013288;28;20350;-88
2024/01/06 02:16:14;;;;;;;;;;;7.00;99.90;;;;;;5012289;28;19996;-87
2024/01/06 02:18:39;;;;;;;;;;;7.00;99.90;;;;;;5018097;28;19983;-88
2024/01/06 02:21:06;;;;;;;;;;;6.90;99.90;;;;;;5015942;28;19990;-88
2024/01/06 02:23:34;;;;;;;;;;;7.00;99.90;;;;;;5016044;28;20377;-88
2024/01/06 02:25:59;;;;;;;;;;;6.90;99.90;;;;;;5016493;28;20374;-88
2024/01/06 02:28:25;;;;;;;;;;;7.00;99.90;;;;;;5015167;28;19957;-89
2024/01/06 02:30:50;;;;;;;;;;;6.90;99.90;;;;;;5015502;28;20261;-88
2024/01/06 02:33:16;;;;;;;;;;;6.90;99.90;;;;;;5014019;28;19936;-89
2024/01/06 02:35:42;;;;;;;;;;;6.90;99.90;;;;;;5015135;28;20415;-89
2024/01/06 02:38:09;;;;;;;;;;;6.90;99.90;;;;;;5013150;28;20243;-88
2024/01/06 02:40:34;;;;;;;;;;;6.90;99.90;;;;;;5016550;28;19927;-88
2024/01/06 02:43:00;;;;;;;;;;;6.90;99.90;;;;;;5016769;28;19934;-89
2024/01/06 02:45:25;;;;;;;;;;;6.80;99.90;;;;;;5015667;28;19951;-89
2024/01/06 02:47:51;;;;;;;;;;;6.90;99.90;;;;;;5016406;28;19926;-89
2024/01/06 02:50:17;;;;;;;;;;;6.90;99.90;;;;;;5016022;28;20309;-88
2024/01/06 02:52:42;;;;;;;;;;;7.00;99.90;;;;;;5016311;28;19991;-88
2024/01/06 02:55:08;;;;;;;;;;;7.00;99.90;;;;;;5006290;28;19963;-90
2024/01/06 02:57:35;;;;;;;;;;;7.00;99.90;;;;;;5013229;28;19999;-88
2024/01/06 03:00:01;;;;;;;;;;;7.00;99.90;;;;;;5015677;28;19937;-88
2024/01/06 03:02:26;;;;;;;;;;;7.00;99.90;;;;;;5011938;28;19929;-89
2024/01/06 03:04:52;;;;;;;;;;;6.80;99.90;;;;;;5014423;28;19937;-89
2024/01/06 03:07:18;;;;;;;;;;;6.70;99.90;;;;;;5014728;28;20444;-88
2024/01/06 03:09:43;;;;;;;;;;;6.70;99.90;;;;;;5012995;28;20251;-88
2024/01/06 03:12:09;;;;;;;;;;;6.60;99.90;;;;;;5013490;28;20401;-89
2024/01/06 03:14:35;;;;;;;;;;;6.50;99.90;;;;;;5034234;28;19962;-89
2024/01/06 03:17:00;;;;;;;;;;;6.30;99.90;;;;;;5034506;28;20013;-88
2024/01/06 03:19:27;;;;;;;;;;;6.30;99.90;;;;;;5034690;28;19995;-88
2024/01/06 03:21:53;;;;;;;;;;;6.30;99.90;;;;;;5033058;28;19915;-88
2024/01/06 03:24:18;;;;;;;;;;;6.20;99.90;;;;;;5030916;28;19926;-89
2024/01/06 03:26:44;;;;;;;;;;;6.30;99.90;;;;;;5013327;28;19956;-89
2024/01/06 03:29:09;;;;;;;;;;;6.30;99.90;;;;;;5015703;28;20031;-88
2024/01/06 03:31:35;;;;;;;;;;;6.30;99.90;;;;;;5017435;28;19936;-88
2024/01/06 03:34:01;;;;;;;;;;;6.30;99.90;;;;;;5021528;28;19937;-89
2024/01/06 03:36:26;;;;;;;;;;;6.30;99.90;;;;;;5023708;28;20460;-88
2024/01/06 03:38:52;;;;;;;;;;;6.30;99.90;;;;;;5020646;28;20716;-88
2024/01/06 03:41:17;;;;;;;;;;;6.30;99.90;;;;;;5016533;28;20352;-89
2024/01/06 03:43:43;;;;;;;;;;;6.20;99.90;;;;;;5018794;28;20380;-89
2024/01/06 03:46:08;;;;;;;;;;;6.40;99.90;;;;;;5021790;28;19978;-88
2024/01/06 03:48:34;;;;;;;;;;;6.50;99.90;;;;;;5020181;28;19964;-88
2024/01/06 03:51:00;;;;;;;;;;;6.60;99.90;;;;;;5019121;28;20024;-88
2024/01/06 03:53:25;;;;;;;;;;;6.70;99.90;;;;;;5018458;28;20403;-88
2024/01/06 03:55:51;;;;;;;;;;;6.80;99.90;;;;;;5015967;28;20047;-89
2024/01/06 03:58:17;;;;;;;;;;;6.80;99.90;;;;;;5012091;28;19928;-89
2024/01/06 04:00:43;;;;;;;;;;;6.80;99.90;;;;;;5026485;28;19934;-88
2024/01/06 04:03:08;;;;;;;;;;;6.90;99.90;;;;;;5041205;28;19974;-89
2024/01/06 04:05:34;;;;;;;;;;;7.00;99.90;;;;;;5034981;28;19936;-89
2024/01/06 04:07:59;;;;;;;;;;;7.00;99.90;;;;;;5018178;28;20025;-89
2024/01/06 04:10:25;;;;;;;;;;;7.00;99.90;;;;;;5029638;28;19951;-88
2024/01/06 04:12:50;;;;;;;;;;;6.90;99.90;;;;;;5029981;28;19926;-88
2024/01/06 04:15:16;;;;;;;;;;;6.80;99.90;;;;;;5037354;28;19944;-87
2024/01/06 04:17:41;;;;;;;;;;;6.80;99.90;;;;;;5038331;28;19926;-88
2024/01/06 04:20:07;;;;;;;;;;;6.80;99.90;;;;;;5031821;28;19913;-87
2024/01/06 04:22:33;;;;;;;;;;;6.90;99.90;;;;;;5017624;28;20034;-90
2024/01/06 04:24:58;;;;;;;;;;;6.80;99.90;;;;;;5025931;28;20016;-89
2024/01/06 04:27:24;;;;;;;;;;;6.80;99.90;;;;;;5024255;28;19930;-88
2024/01/06 04:29:52;;;;;;;;;;;6.70;99.90;;;;;;5030994;28;20057;-88
2024/01/06 04:32:18;;;;;;;;;;;6.70;99.90;;;;;;5026534;28;20363;-88
2024/01/06 04:34:44;;;;;;;;;;;6.70;99.90;;;;;;5026943;28;19985;-89
2024/01/06 04:37:09;;;;;;;;;;;6.80;99.90;;;;;;5019012;28;19949;-89
2024/01/06 04:39:35;;;;;;;;;;;6.80;99.90;;;;;;5028765;28;20017;-87
2024/01/06 04:42:00;;;;;;;;;;;6.90;99.90;;;;;;5040501;28;20007;-88
2024/01/06 04:44:26;;;;;;;;;;;6.80;99.90;;;;;;5034525;28;21049;-89
2024/01/06 04:46:51;;;;;;;;;;;6.90;99.90;;;;;;5024885;28;19944;-89
2024/01/06 04:49:17;;;;;;;;;;;6.90;99.90;;;;;;5028658;28;19932;-88
2024/01/06 04:51:43;;;;;;;;;;;6.90;99.90;;;;;;5037586;28;19931;-88
2024/01/06 04:54:08;;;;;;;;;;;6.90;99.90;;;;;;5039681;28;19917;-88
2024/01/06 04:56:34;;;;;;;;;;;7.00;99.90;;;;;;5047745;28;19953;-88
2024/01/06 04:58:59;;;;;;;;;;;7.00;99.90;;;;;;5030287;28;20632;-90
2024/01/06 05:01:25;;;;;;;;;;;6.90;99.90;;;;;;5030573;28;19932;-89
2024/01/06 05:03:50;;;;;;;;;;;7.00;99.90;;;;;;5028210;28;20422;-89
2024/01/06 05:06:16;;;;;;;;;;;7.00;99.90;;;;;;5030978;28;19939;-88
2024/01/06 05:08:44;;;;;;;;;;;7.00;99.90;;;;;;5036863;28;20406;-90
2024/01/06 05:11:10;;;;;;;;;;;7.00;99.90;;;;;;5040823;28;19915;-89
2024/01/06 05:13:36;;;;;;;;;;;6.90;99.90;;;;;;5046817;28;19927;-88
2024/01/06 05:16:01;;;;;;;;;;;6.90;99.90;;;;;;5044706;28;19997;-89
2024/01/06 05:18:27;;;;;;;;;;;7.00;99.90;;;;;;5043392;28;19941;-89
2024/01/06 05:20:53;;;;;;;;;;;7.00;99.90;;;;;;5047105;28;19916;-89
2024/01/06 05:23:18;;;;;;;;;;;7.00;99.90;;;;;;5041327;28;19954;-88
2024/01/06 05:25:44;;;;;;;;;;;7.00;99.90;;;;;;5042498;28;19992;-89
2024/01/06 05:28:09;;;;;;;;;;;7.00;99.90;;;;;;5045266;28;19942;-90
2024/01/06 05:30:35;;;;;;;;;;;7.00;99.90;;;;;;5044228;28;19950;-89
2024/01/06 05:33:01;;;;;;;;;;;6.80;99.90;;;;;;5032937;28;19935;-88
2024/01/06 05:35:27;;;;;;;;;;;6.90;99.90;;;;;;5029487;28;19987;-88
2024/01/06 05:37:52;;;;;;;;;;;7.00;99.90;;;;;;5022810;28;19982;-87
2024/01/06 05:40:18;;;;;;;;;;;6.90;99.90;;;;;;5028335;28;20369;-89
2024/01/06 05:42:43;;;;;;;;;;;6.90;99.90;;;;;;5030883;28;19929;-88
2024/01/06 05:45:11;;;;;;;;;;;6.80;99.90;;;;;;5026689;28;19922;-89
2024/01/06 05:47:37;;;;;;;;;;;6.90;99.90;;;;;;5022993;28;19991;-89
2024/01/06 05:50:02;;;;;;;;;;;6.90;99.90;;;;;;5031755;28;19957;-89
2024/01/06 05:52:28;;;;;;;;;;;6.80;99.90;;;;;;5032604;28;19933;-89
2024/01/06 05:54:53;;;;;;;;;;;6.90;99.90;;;;;;5026537;28;19935;-88
2024/01/06 05:57:19;;;;;;;;;;;6.90;99.90;;;;;;5027553;28;19956;-88
2024/01/06 05:59:44;;;;;;;;;;;6.80;99.90;;;;;;5022361;28;20314;-88
2024/01/06 06:02:10;;;;;;;;;;;6.70;99.90;;;;;;5020195;28;20297;-88
2024/01/06 06:04:35;;;;;;;;;;;6.70;99.90;;;;;;5027165;28;20093;-90
2024/01/06 06:07:02;;;;;;;;;;;6.60;99.90;;;;;;5023400;28;20014;-89
2024/01/06 06:09:28;;;;;;;;;;;6.50;99.90;;;;;;5025152;28;19920;-89
2024/01/06 06:11:54;;;;;;;;;;;6.50;99.90;;;;;;5023676;28;19925;-89
2024/01/06 06:14:19;;;;;;;;;;;6.30;99.90;;;;;;5031490;28;19944;-88
2024/01/06 06:16:46;;;;;;;;;;;6.30;99.90;;;;;;5021803;28;19928;-89
2024/01/06 06:19:12;;;;;;;;;;;6.30;99.90;;;;;;5025508;28;19932;-88
2024/01/06 06:21:37;;;;;;;;;;;6.20;99.90;;;;;;5023473;28;19918;-89
2024/01/06 06:24:03;;;;;;;;;;;6.10;99.90;;;;;;5031702;28;19920;-89
2024/01/06 06:26:29;;;;;;;;;;;6.00;99.90;;;;;;5031341;28;20343;-87
2024/01/06 06:28:55;;;;;;;;;;;6.00;99.90;;;;;;5033284;28;19968;-88
2024/01/06 06:31:20;;;;;;;;;;;6.10;99.90;;;;;;5041498;28;19970;-88
2024/01/06 06:33:46;;;;;;;;;;;6.10;99.90;;;;;;5039568;28;19975;-88
2024/01/06 06:36:11;;;;;;;;;;;6.20;99.90;;;;;;5036765;28;19997;-89
2024/01/06 06:38:37;;;;;;;;;;;6.20;99.90;;;;;;5031502;28;20365;-89
2024/01/06 06:41:03;;;;;;;;;;;6.10;99.90;;;;;;5031893;28;20008;-89
2024/01/06 06:43:28;;;;;;;;;;;6.00;99.90;;;;;;5029485;28;19940;-88
2024/01/06 06:45:55;;;;;;;;;;;6.10;99.90;;;;;;5038802;28;19932;-88
2024/01/06 06:48:21;;;;;;;;;;;6.10;99.90;;;;;;5040204;28;20011;-90
2024/01/06 06:50:46;;;;;;;;;;;6.10;99.90;;;;;;5035468;28;19993;-89
2024/01/06 06:53:12;;;;;;;;;;;6.10;99.90;;;;;;5026670;28;20003;-89
2024/01/06 06:55:38;;;;;;;;;;;6.20;99.90;;;;;;5027190;28;20102;-89
2024/01/06 06:58:05;;;;;;;;;;;6.20;99.90;;;;;;5022807;28;19948;-89
2024/01/06 07:00:30;;;;;;;;;;;6.10;99.90;;;;;;5023383;28;19981;-88
2024/01/06 07:02:56;;;;;;;;;;;6.10;99.90;;;;;;5027080;28;19948;-89
2024/01/06 07:05:22;;;;;;;;;;;6.10;99.90;;;;;;5028982;28;19992;-89
2024/01/06 07:07:47;;;;;;;;;;;6.00;99.90;;;;;;5037304;28;19932;-88
2024/01/06 07:10:13;;;;;;;;;;;6.10;99.90;;;;;;5033102;28;20487;-88
2024/01/06 07:12:39;;;;;;;;;;;6.10;99.90;;;;;;5032060;28;19954;-87
2024/01/06 07:15:04;;;;;;;;;;;6.10;99.90;;;;;;5048416;28;20015;-88
2024/01/06 07:17:30;;;;;;;;;;;5.90;99.90;;;;;;5041024;28;19962;-88
2024/01/06 07:19:55;;;;;;;;;;;5.80;99.90;;;;;;5036986;28;19920;-89
2024/01/06 07:22:22;;;;;;;;;;;5.80;99.90;;;;;;5029717;28;19934;-89
2024/01/06 07:24:47;;;;;;;;;;;5.80;99.90;;;;;;5036006;28;19933;-89
2024/01/06 07:27:13;;;;;;;;;;;5.70;99.90;;;;;;5042354;28;19987;-88
2024/01/06 07:29:38;;;;;;;;;;;5.60;99.90;;;;;;5051999;28;19917;-89
2024/01/06 07:32:06;;;;;;;;;;;5.60;99.90;;;;;;5053361;28;19923;-88
2024/01/06 07:34:31;;;;;;;;;;;5.50;99.90;;;;;;5055080;28;19984;-88
2024/01/06 07:36:57;;;;;;;;;;;5.40;99.90;;;;;;5053329;28;19923;-88
2024/01/06 07:39:24;;;;;;;;;;;5.40;99.90;;;;;;5046950;28;19939;-88
2024/01/06 07:41:49;;;;;;;;;;;5.40;99.90;;;;;;5037159;28;19962;-88
2024/01/06 07:44:16;;;;;;;;;;;5.30;99.90;;;;;;5031325;28;19991;-88
2024/01/06 07:46:41;;;;;;;;;;;5.30;99.90;;;;;;5029924;28;19963;-88
2024/01/06 07:49:07;;;;;;;;;;;5.20;99.90;;;;;;5033622;28;20003;-88
2024/01/06 07:51:34;;;;;;;;;;;5.20;99.90;;;;;;5034808;28;20346;-88
2024/01/06 07:54:00;;;;;;;;;;;5.20;99.90;;;;;;5035776;28;19975;-90
2024/01/06 07:56:26;;;;;;;;;;;5.20;99.90;;;;;;5031381;28;20455;-90
2024/01/06 07:58:52;;;;;;;;;;;5.30;99.90;;;;;;5030512;28;19969;-90
2024/01/06 08:01:18;;;;;;;;;;;5.30;99.90;;;;;;5028783;28;19961;-88
2024/01/06 08:03:43;;;;;;;;;;;5.40;99.90;;;;;;5024081;28;20073;-88
2024/01/06 08:06:09;;;;;;;;;;;5.40;99.90;;;;;;5031578;28;20303;-89
2024/01/06 08:08:35;;;;;;;;;;;5.50;99.90;;;;;;5030504;28;19948;-90
2024/01/06 08:11:01;;;;;;;;;;;5.40;99.90;;;;;;5037694;28;20157;-89
2024/01/06 08:13:26;;;;;;;;;;;5.50;99.90;;;;;;5033013;28;19931;-88
2024/01/06 08:15:52;;;;;;;;;;;5.60;99.90;;;;;;5033831;28;19952;-89
2024/01/06 08:18:18;;;;;;;;;;;5.70;99.90;;;;;;5034921;28;20391;-90
2024/01/06 08:20:43;;;;;;;;;;;5.70;99.90;;;;;;5035756;28;19954;-89
2024/01/06 08:23:10;;;;;;;;;;;5.80;99.90;;;;;;5028929;28;19916;-89
2024/01/06 08:25:36;;;;;;;;;;;5.90;99.90;;;;;;5035636;28;19972;-89
2024/01/06 08:28:01;;;;;;;;;;;5.90;99.90;;;;;;5039277;28;19928;-89
2024/01/06 08:30:27;;;;;;;;;;;5.90;99.90;;;;;;5022513;28;19979;-90
2024/01/06 08:32:52;;;;;;;;;;;6.00;99.90;;;;;;5016146;28;19928;-89
2024/01/06 08:35:19;;;;;;;;;;;6.00;99.90;;;;;;5016498;28;20396;-89
2024/01/06 08:37:45;;;;;;;;;;;6.00;99.90;;;;;;5018469;28;19930;-88
2024/01/06 08:40:10;;;;;;;;;;;6.00;99.90;;;;;;5022141;28;19955;-88
2024/01/06 08:42:36;;;;;;;;;;;6.00;99.90;;;;;;5023956;28;20008;-89
2024/01/06 08:45:02;;;;;;;;;;;5.90;99.90;;;;;;5026965;28;19972;-89
2024/01/06 08:47:28;;;;;;;;;;;6.00;99.90;;;;;;5029700;28;19929;-88
2024/01/06 08:49:53;;;;;;;;;;;5.80;99.90;;;;;;5030128;28;19981;-89
2024/01/06 08:52:19;;;;;;;;;;;5.80;99.90;;;;;;5024221;28;19909;-90
2024/01/06 08:54:44;;;;;;;;;;;5.80;99.90;;;;;;5022674;28;19946;-89
2024/01/06 08:57:10;;;;;;;;;;;5.80;99.90;;;;;;5021635;28;20426;-88
2024/01/06 08:59:35;;;;;;;;;;;5.60;99.90;;;;;;5018361;28;19930;-88
2024/01/06 09:02:01;;;;;;;;;;;5.70;99.90;;;;;;5019983;28;19923;-88
2024/01/06 09:04:26;;;;;;;;;;;5.70;99.90;;;;;;5018579;28;19979;-89
2024/01/06 09:06:52;;;;;;;;;;;5.70;99.90;;;;;;5019899;28;20350;-89
2024/01/06 09:09:18;;;;;;;;;;;5.90;99.90;;;;;;5020528;28;19924;-88
2024/01/06 09:11:44;;;;;;;;;;;6.10;99.90;;;;;;5017071;28;20282;-89
2024/01/06 09:14:10;;;;;;;;;;;6.20;99.90;;;;;;5018464;28;19934;-89
2024/01/06 09:16:36;;;;;;;;;;;6.40;99.90;;;;;;5018505;28;20450;-88
2024/01/06 09:19:02;;;;;;;;;;;6.50;99.90;;;;;;5018308;28;19924;-89
2024/01/06 09:21:28;;;;;;;;;;;6.70;99.90;;;;;;5018618;28;19928;-87
2024/01/06 09:23:53;;;;;;;;;;;6.90;99.90;;;;;;5017585;28;20006;-89
2024/01/06 09:26:19;;;;;;;;;;;7.00;99.90;;;;;;5017203;28;19931;-89
2024/01/06 09:28:45;;;;;;;;;;;7.00;99.90;;;;;;5018273;28;19951;-88
2024/01/06 09:31:11;;;;;;;;;;;7.10;99.90;;;;;;5018056;28;19934;-88
2024/01/06 09:33:38;;;;;;;;;;;7.10;99.90;;;;;;5015311;28;19984;-89
2024/01/06 09:36:04;;;;;;;;;;;7.10;99.90;;;;;;5017995;28;19948;-90
2024/01/06 09:38:29;;;;;;;;;;;7.10;99.90;;;;;;5019562;28;20708;-90
2024/01/06 09:40:55;;;;;;;;;;;7.10;99.90;;;;;;5027583;28;20000;-89
2024/01/06 09:43:21;;;;;;;;;;;7.20;99.90;;;;;;5036137;28;19927;-89
2024/01/06 09:45:53;;;;;;;;;;;7.20;99.90;;;;;;5036308;28;19917;-88
2024/01/06 09:48:20;;;;;;;;;;;7.20;99.90;;;;;;5035433;28;19993;-88
2024/01/06 09:50:46;;;;;;;;;;;7.30;99.90;;;;;;5032044;28;19978;-89
2024/01/06 09:53:12;;;;;;;;;;;7.30;99.90;;;;;;5028180;28;19985;-88
2024/01/06 09:55:38;;;;;;;;;;;7.30;99.90;;;;;;5025133;28;19967;-88
2024/01/06 09:58:04;;;;;;;;;;;7.40;99.90;;;;;;5019814;28;19978;-88
2024/01/06 10:00:30;;;;;;;;;;;7.30;99.90;;;;;;5015551;28;19919;-87
2024/01/06 10:02:55;;;;;;;;;;;7.30;99.90;;;;;;5016736;28;19964;-88
2024/01/06 10:05:21;;;;;;;;;;;7.50;99.90;;;;;;5017975;28;19983;-89
2024/01/06 10:07:47;;;;;;;;;;;7.40;99.90;;;;;;5016239;28;20554;-88
2024/01/06 10:10:13;;;;;;;;;;;7.40;99.90;;;;;;5016441;28;19923;-88
2024/01/06 10:12:40;;;;;;;;;;;7.60;99.90;;;;;;5016694;28;20043;-89
2024/01/06 10:15:06;;;;;;;;;;;7.60;99.90;;;;;;5012576;28;19930;-88
2024/01/06 10:17:32;;;;;;;;;;;7.70;99.90;;;;;;5015154;28;19975;-88
2024/01/06 10:19:59;;;;;;;;;;;7.80;99.90;;;;;;5016718;28;19935;-88
2024/01/06 10:22:26;;;;;;;;;;;8.00;99.90;;;;;;5014844;28;19921;-89
2024/01/06 10:24:52;;;;;;;;;;;8.10;99.90;;;;;;5016606;28;19927;-88
2024/01/06 10:27:17;;;;;;;;;;;7.90;99.90;;;;;;5014788;28;20007;-88
2024/01/06 10:29:44;;;;;;;;;;;7.90;99.90;;;;;;5021605;28;20016;-88
2024/01/06 10:32:09;;;;;;;;;;;7.90;99.90;;;;;;5025186;28;19920;-87
2024/01/06 10:34:36;;;;;;;;;;;7.90;99.90;;;;;;5026660;28;19933;-87
2024/01/06 10:37:02;;;;;;;;;;;8.20;99.90;;;;;;5013129;28;19926;-89
2024/01/06 10:39:29;;;;;;;;;;;8.40;99.90;;;;;;5013619;28;20446;-87
2024/01/06 10:41:54;;;;;;;;;;;8.60;99.90;;;;;;5018675;28;19936;-87
2024/01/06 10:44:21;;;;;;;;;;;8.70;99.90;;;;;;5015101;28;19924;-88
2024/01/06 10:46:48;;;;;;;;;;;8.60;99.90;;;;;;5021704;28;20400;-88
2024/01/06 10:49:14;;;;;;;;;;;8.70;99.90;;;;;;5022674;28;19928;-89
2024/01/06 10:51:40;;;;;;;;;;;8.80;99.90;;;;;;5020124;28;19988;-88
2024/01/06 10:54:09;;;;;;;;;;;8.90;99.90;;;;;;5020325;28;20371;-88
2024/01/06 10:56:36;;;;;;;;;;;8.80;99.90;;;;;;5025851;28;19950;-87
2024/01/06 10:59:03;;;;;;;;;;;8.70;99.90;;;;;;5023883;28;19923;-88
2024/01/06 11:01:29;;;;;;;;;;;9.20;99.90;;;;;;5020242;28;19937;-88
2024/01/06 11:03:55;;;;;;;;;;;12.10;99.90;;;;;;5020668;28;19932;-87
2024/01/06 11:06:21;;;;;;;;;;;15.30;95.80;;;;;;5017656;28;20641;-88
2024/01/06 11:09:06;;;;;;;;;;;16.50;72.30;;;;;;5019538;28;20229;-87
2024/01/06 11:11:32;;;;;;;;;;;15.90;68.90;;;;;;5018243;28;19925;-88
2024/01/06 11:14:20;;;;;;;;;;;14.50;79.70;;;;;;5020567;28;19950;-89
2024/01/06 11:16:45;;;;;;;;;;;13.70;78.00;;;;;;5013126;28;19949;-88
2024/01/06 11:19:31;;;;;;;;;;;12.60;98.60;;;;;;5011518;28;20385;-87
2024/01/06 11:22:20;;;;;;;;;;;11.70;99.90;;;;;;5008905;28;19929;-89
2024/01/06 11:24:49;;;;;;;;;;;10.20;99.90;;;;;;5001116;28;19971;-89
2024/01/06 11:27:18;;;;;;;;;;;9.70;99.90;;;;;;5003708;28;19938;-87
2024/01/06 11:29:44;;;;;;;;;;;9.80;99.90;;;;;;5008323;28;19997;-89
2024/01/06 11:32:33;;;;;;;;;;;9.70;99.90;;;;;;5007973;28;20298;-88
2024/01/06 11:35:14;;;;;;;;;;;9.60;99.90;;;;;;5007228;28;19914;-89
2024/01/06 11:37:40;;;;;;;;;;;9.00;99.90;;;;;;5005824;28;19927;-88
2024/01/06 11:40:24;;;;;;;;;;;8.60;99.90;;;;;;5014384;28;19932;-90
2024/01/06 11:43:02;;;;;;;;;;;8.40;99.90;;;;;;5011751;28;19959;-88
2024/01/06 11:45:28;;;;;;;;;;;8.40;99.90;;;;;;5008141;28;19960;-88
2024/01/06 11:47:56;;;;;;;;;;;8.30;99.90;;;;;;5013666;28;20376;-88
2024/01/06 11:50:23;;;;;;;;;;;8.50;99.90;;;;;;5029356;28;19921;-89
2024/01/06 11:52:49;;;;;;;;;;;8.60;99.90;;;;;;5029430;28;20032;-88
2024/01/06 11:55:17;;;;;;;;;;;8.60;99.90;;;;;;5024866;28;19947;-89
2024/01/06 11:57:43;;;;;;;;;;;8.80;99.90;;;;;;5029298;28;20083;-89
2024/01/06 12:00:08;;;;;;;;;;;9.00;99.90;;;;;;5031309;28;19927;-89
2024/01/06 12:02:34;;;;;;;;;;;9.20;99.90;;;;;;5013211;28;19934;-88
2024/01/06 12:05:00;;;;;;;;;;;9.40;99.90;;;;;;5011264;28;19924;-88
2024/01/06 12:07:25;;;;;;;;;;;9.50;99.90;;;;;;5021152;28;20395;-88
2024/01/06 12:10:00;;;;;;;;;;;9.70;99.90;;;;;;5013841;28;19925;-88
2024/01/06 12:12:25;;;;;;;;;;;9.70;99.90;;;;;;5010784;28;20367;-89
2024/01/06 12:14:53;;;;;;;;;;;9.70;99.90;;;;;;5001919;28;19938;-89
2024/01/06 12:17:20;;;;;;;;;;;9.40;99.90;;;;;;5002110;28;20034;-87
2024/01/06 12:19:46;;;;;;;;;;;9.20;99.90;;;;;;5007985;28;19937;-89
2024/01/06 12:22:13;;;;;;;;;;;9.20;99.90;;;;;;5003961;28;19929;-88
2024/01/06 12:24:39;;;;;;;;;;;8.90;99.90;;;;;;5008474;28;19966;-88
2024/01/06 12:27:06;;;;;;;;;;;8.90;99.90;;;;;;5000790;28;19995;-88
2024/01/06 12:29:32;;;;;;;;;;;8.80;99.90;;;;;;5004929;28;19917;-89
2024/01/06 12:31:59;;;;;;;;;;;8.80;99.90;;;;;;5012739;28;20022;-88
2024/01/06 12:34:24;;;;;;;;;;;8.90;99.90;;;;;;5013271;28;19921;-87
2024/01/06 12:36:52;;;;;;;;;;;8.90;99.90;;;;;;5014649;28;19963;-88
2024/01/06 12:39:18;;;;;;;;;;;9.00;99.90;;;;;;5014078;28;20017;-88
2024/01/06 12:41:44;;;;;;;;;;;8.90;99.90;;;;;;5013593;28;20013;-89
2024/01/06 12:44:09;;;;;;;;;;;8.80;99.90;;;;;;5012353;28;19924;-89
2024/01/06 12:46:35;;;;;;;;;;;8.70;99.90;;;;;;5012595;28;19957;-88
2024/01/06 12:49:02;;;;;;;;;;;8.40;99.90;;;;;;5008931;28;19909;-88
2024/01/06 12:51:27;;;;;;;;;;;8.20;99.90;;;;;;5012378;28;20006;-87
2024/01/06 12:53:53;;;;;;;;;;;8.20;99.90;;;;;;5014040;28;19989;-88
2024/01/06 12:56:19;;;;;;;;;;;8.40;99.90;;;;;;5011915;28;19955;-87
2024/01/06 12:58:44;;;;;;;;;;;8.60;99.90;;;;;;5014844;28;19923;-87
2024/01/06 13:01:10;;;;;;;;;;;8.90;99.90;;;;;;5015694;28;19970;-87
2024/01/06 13:03:36;;;;;;;;;;;8.90;99.90;;;;;;5014504;28;19927;-88
2024/01/06 13:06:02;;;;;;;;;;;8.70;99.90;;;;;;5015808;28;19935;-88
2024/01/06 13:08:28;;;;;;;;;;;8.90;99.90;;;;;;5024335;28;19940;-88
2024/01/06 13:10:54;;;;;;;;;;;9.10;99.90;;;;;;5032421;28;20886;-88
2024/01/06 13:13:20;;;;;;;;;;;9.40;99.90;;;;;;5035078;28;19916;-87
2024/01/06 13:15:46;;;;;;;;;;;9.50;99.90;;;;;;5033476;28;20036;-87
2024/01/06 13:18:12;;;;;;;;;;;9.30;99.90;;;;;;5025375;28;19953;-87
2024/01/06 13:20:40;;;;;;;;;;;8.80;99.90;;;;;;5017456;28;20432;-87
2024/01/06 13:23:06;;;;;;;;;;;8.60;99.90;;;;;;5018273;28;19935;-89
2024/01/06 13:25:32;;;;;;;;;;;8.50;99.90;;;;;;5018400;28;20003;-87
2024/01/06 13:27:58;;;;;;;;;;;8.50;99.90;;;;;;5017470;28;20030;-88
2024/01/06 13:30:25;;;;;;;;;;;8.50;99.90;;;;;;5020006;28;19932;-88
2024/01/06 13:32:53;;;;;;;;;;;8.30;99.90;;;;;;5046683;28;20284;-89
2024/01/06 13:35:19;;;;;;;;;;;8.20;99.90;;;;;;5046719;28;19962;-87
2024/01/06 13:37:48;;;;;;;;;;;8.20;99.90;;;;;;5047044;28;19942;-86
2024/01/06 13:40:14;;;;;;;;;;;8.10;99.90;;;;;;5045547;28;19992;-87
2024/01/06 13:42:39;;;;;;;;;;;8.30;99.90;;;;;;5041225;28;19945;-87
2024/01/06 13:45:06;;;;;;;;;;;8.40;99.90;;;;;;5024131;28;19936;-88
2024/01/06 13:47:32;;;;;;;;;;;8.40;99.90;;;;;;5023362;28;19936;-88
2024/01/06 13:49:58;;;;;;;;;;;8.40;99.90;;;;;;5022851;28;19923;-87
2024/01/06 13:52:24;;;;;;;;;;;8.40;99.90;;;;;;5020189;28;19928;-87
2024/01/06 13:54:49;;;;;;;;;;;8.40;99.90;;;;;;5019665;28;21056;-88
2024/01/06 13:57:15;;;;;;;;;;;8.50;99.90;;;;;;5022052;28;19946;-88
2024/01/06 13:59:42;;;;;;;;;;;8.50;99.90;;;;;;5031874;28;19941;-87
2024/01/06 14:02:09;;;;;;;;;;;8.40;99.90;;;;;;5042741;28;19972;-88
2024/01/06 14:04:35;;;;;;;;;;;8.40;99.90;;;;;;5045019;28;19964;-88
2024/01/06 14:07:01;;;;;;;;;;;8.30;99.90;;;;;;5043091;28;19967;-87
2024/01/06 14:09:27;;;;;;;;;;;8.20;99.90;;;;;;5041235;28;19915;-88
2024/01/06 14:11:54;;;;;;;;;;;8.10;99.90;;;;;;5024792;28;19984;-88
2024/01/06 14:14:20;;;;;;;;;;;8.10;99.90;;;;;;5019982;28;19935;-88
2024/01/06 14:16:46;;;;;;;;;;;8.10;99.90;;;;;;5019948;28;20479;-88
2024/01/06 14:19:12;;;;;;;;;;;8.10;99.90;;;;;;5024198;28;19962;-87
2024/01/06 14:21:38;;;;;;;;;;;7.90;99.90;;;;;;5028658;28;19981;-88